Time;durP1;ratioP1;P1;durP2;ratioP2;P2;SDS_P1;SDS_P2;PMS_P1;PMS_P2;Temp;Humidity;BMP_temperature;BMP_pressure;BME280_temperature;BME280_humidity;BME280_pressure;Samples;Min_cycle;Max_cycle;Signal;HPM_P1;HPM_P2
2022/05/04 00:01:51;;;;;;;7.15;6.38;;;12.40;99.90;;;;;;5049237;28;20183;-73
2022/05/04 00:04:17;;;;;;;11.90;5.93;;;12.40;99.90;;;;;;5050470;28;20183;-73
2022/05/04 00:06:43;;;;;;;14.38;6.63;;;12.50;99.90;;;;;;5056214;28;20200;-72
2022/05/04 00:09:09;;;;;;;10.90;7.18;;;12.50;99.90;;;;;;5057867;28;20650;-72
2022/05/04 00:11:35;;;;;;;11.88;6.55;;;12.40;99.90;;;;;;5058828;28;20194;-72
2022/05/04 00:14:01;;;;;;;10.25;6.72;;;12.30;99.90;;;;;;5047023;28;20184;-72
2022/05/04 00:16:26;;;;;;;9.23;6.72;;;12.20;99.90;;;;;;5051810;28;20198;-72
2022/05/04 00:18:52;;;;;;;9.05;6.85;;;12.10;99.90;;;;;;5047382;28;20167;-72
2022/05/04 00:21:18;;;;;;;8.30;7.50;;;12.10;99.90;;;;;;5037209;28;20188;-72
2022/05/04 00:23:43;;;;;;;9.75;7.38;;;12.10;99.90;;;;;;5053273;28;20631;-72
2022/05/04 00:26:09;;;;;;;7.38;6.72;;;12.00;99.90;;;;;;5050405;28;20204;-72
2022/05/04 00:28:35;;;;;;;9.98;6.80;;;12.00;99.90;;;;;;5057106;28;20202;-72
2022/05/04 00:31:01;;;;;;;8.52;6.95;;;12.00;99.90;;;;;;5048949;28;20282;-72
2022/05/04 00:33:26;;;;;;;9.95;7.32;;;11.90;99.90;;;;;;5042545;28;20203;-73
2022/05/04 00:35:52;;;;;;;8.27;7.57;;;11.80;99.90;;;;;;5027320;28;20249;-72
2022/05/04 00:38:17;;;;;;;7.78;7.03;;;11.70;99.90;;;;;;5046835;28;20179;-72
2022/05/04 00:40:43;;;;;;;8.30;6.60;;;11.70;99.90;;;;;;5050760;28;20172;-72
2022/05/04 00:43:25;;;;;;;7.00;6.50;;;11.80;99.90;;;;;;5051227;28;20192;-73
2022/05/04 00:45:51;;;;;;;8.82;7.95;;;11.80;99.90;;;;;;5045859;28;20485;-72
2022/05/04 00:48:17;;;;;;;7.40;6.63;;;11.80;99.90;;;;;;5053932;28;20693;-72
2022/05/04 00:50:44;;;;;;;8.68;7.88;;;11.80;99.90;;;;;;5051736;28;20275;-72
2022/05/04 00:53:11;;;;;;;8.30;7.60;;;11.80;99.90;;;;;;5029547;28;20184;-72
2022/05/04 00:55:37;;;;;;;7.72;7.07;;;11.80;99.90;;;;;;5050433;28;20658;-72
2022/05/04 01:00:51;;;;;;;9.52;7.40;;;11.60;99.90;;;;;;5059075;28;20266;-72
2022/05/04 01:03:17;;;;;;;8.40;7.60;;;11.60;99.90;;;;;;5052618;28;20230;-72
2022/05/04 01:05:43;;;;;;;7.97;7.32;;;11.60;99.90;;;;;;5051541;28;20676;-72
2022/05/04 01:08:09;;;;;;;8.00;7.30;;;11.50;99.90;;;;;;5052011;28;20259;-72
2022/05/04 01:10:34;;;;;;;9.32;8.48;;;11.50;99.90;;;;;;5052446;28;20211;-72
2022/05/04 01:13:00;;;;;;;8.50;7.70;;;11.60;99.90;;;;;;5045554;28;20510;-72
2022/05/04 01:15:26;;;;;;;8.32;7.50;;;11.70;99.90;;;;;;5045227;28;20208;-72
2022/05/04 01:17:52;;;;;;;8.88;7.97;;;11.70;99.90;;;;;;5046010;28;20180;-72
2022/05/04 01:20:18;;;;;;;8.77;7.88;;;11.70;99.90;;;;;;5046670;28;20280;-72
2022/05/04 01:22:44;;;;;;;9.45;8.50;;;11.60;99.90;;;;;;5052358;28;20193;-73
2022/05/04 01:25:12;;;;;;;8.10;7.50;;;11.60;99.90;;;;;;5054302;28;20252;-73
2022/05/04 01:27:37;;;;;;;9.15;8.30;;;11.50;99.90;;;;;;5048488;28;20571;-72
2022/05/04 01:30:04;;;;;;;9.07;8.20;;;11.50;99.90;;;;;;5048936;28;20199;-72
2022/05/04 01:32:30;;;;;;;9.70;8.75;;;11.50;99.90;;;;;;5043297;28;20177;-73
2022/05/04 01:34:55;;;;;;;9.18;8.38;;;11.50;99.90;;;;;;5052938;28;20241;-72
2022/05/04 01:37:21;;;;;;;9.07;8.27;;;11.40;99.90;;;;;;5044988;28;20207;-72
2022/05/04 01:39:47;;;;;;;9.93;9.07;;;11.50;99.90;;;;;;5049770;28;20229;-74
2022/05/04 01:42:23;;;;;;;9.10;8.32;;;11.50;99.90;;;;;;5047913;28;20700;-72
2022/05/04 01:44:49;;;;;;;9.73;8.85;;;11.60;99.90;;;;;;5050644;28;20179;-72
2022/05/04 01:47:15;;;;;;;9.32;8.48;;;11.60;99.90;;;;;;5046268;28;20207;-73
2022/05/04 01:49:41;;;;;;;9.13;8.32;;;11.80;99.90;;;;;;5048989;28;20242;-72
2022/05/04 01:52:06;;;;;;;9.50;8.75;;;11.90;99.90;;;;;;5052324;28;20639;-73
2022/05/04 01:54:32;;;;;;;8.82;8.07;;;12.00;99.90;;;;;;5044077;28;20203;-72
2022/05/04 01:56:58;;;;;;;9.07;8.10;;;12.00;99.90;;;;;;5049610;28;20680;-72
2022/05/04 01:59:23;;;;;;;8.85;8.05;;;12.10;99.90;;;;;;5046607;28;20176;-72
2022/05/04 02:01:49;;;;;;;8.45;7.63;;;12.10;99.90;;;;;;5051157;28;20197;-72
2022/05/04 02:04:15;;;;;;;8.70;7.80;;;12.10;99.90;;;;;;5050850;28;20640;-72
2022/05/04 02:06:42;;;;;;;9.25;8.20;;;12.00;99.90;;;;;;5051333;28;20200;-74
2022/05/04 02:09:07;;;;;;;8.35;7.55;;;12.00;99.90;;;;;;5052321;28;20190;-73
2022/05/04 02:11:35;;;;;;;9.13;8.10;;;11.90;99.90;;;;;;5052156;28;20264;-72
2022/05/04 02:14:01;;;;;;;8.27;7.55;;;11.90;99.90;;;;;;5050193;28;20172;-71
2022/05/04 02:16:26;;;;;;;9.85;7.57;;;11.90;99.90;;;;;;5050611;28;20285;-72
2022/05/04 02:18:52;;;;;;;8.18;7.38;;;11.80;99.90;;;;;;5060348;28;20259;-72
2022/05/04 02:21:18;;;;;;;8.63;7.82;;;11.70;99.90;;;;;;5043187;28;20192;-73
2022/05/04 02:23:43;;;;;;;8.50;7.70;;;11.80;99.90;;;;;;5052534;28;20353;-72
2022/05/04 02:26:09;;;;;;;9.00;8.30;;;11.70;99.90;;;;;;5048406;28;20212;-72
2022/05/04 02:28:35;;;;;;;8.48;7.70;;;11.70;99.90;;;;;;5052404;28;20241;-72
2022/05/04 02:31:01;;;;;;;9.10;8.20;;;11.70;99.90;;;;;;5051857;28;20671;-73
2022/05/04 02:33:27;;;;;;;9.88;9.02;;;11.60;99.90;;;;;;5041256;28;20215;-72
2022/05/04 02:38:37;;;;;;;9.65;8.82;;;11.40;99.90;;;;;;5046698;28;20268;-72
2022/05/04 02:41:03;;;;;;;9.95;8.88;;;11.30;99.90;;;;;;5053947;28;20188;-74
2022/05/04 02:43:28;;;;;;;9.48;8.63;;;11.30;99.90;;;;;;5053567;28;20179;-71
2022/05/04 02:45:57;;;;;;;8.55;7.85;;;11.20;99.90;;;;;;5049859;28;20207;-71
2022/05/04 02:48:23;;;;;;;9.25;8.38;;;11.10;99.90;;;;;;5035680;28;20180;-73
2022/05/04 02:50:48;;;;;;;9.60;8.68;;;11.10;99.90;;;;;;5049967;28;20258;-73
2022/05/04 02:53:14;;;;;;;9.35;8.55;;;11.10;99.90;;;;;;5049870;28;20180;-72
2022/05/04 02:55:40;;;;;;;8.25;7.65;;;11.10;99.90;;;;;;5050439;28;20657;-73
2022/05/04 02:58:06;;;;;;;9.40;8.55;;;11.00;99.90;;;;;;5048281;28;20202;-72
2022/05/04 03:00:31;;;;;;;9.35;8.55;;;11.00;99.90;;;;;;5046304;28;20673;-72
2022/05/04 03:02:58;;;;;;;9.68;8.73;;;10.90;99.90;;;;;;5042942;28;20176;-75
2022/05/04 03:05:24;;;;;;;9.35;8.50;;;10.90;99.90;;;;;;5051573;28;20192;-72
2022/05/04 03:07:50;;;;;;;10.48;9.48;;;11.00;99.90;;;;;;5053163;28;20643;-72
2022/05/04 03:10:16;;;;;;;10.10;9.30;;;11.10;99.90;;;;;;5056082;28;20208;-72
2022/05/04 03:12:42;;;;;;;9.15;8.30;;;11.10;99.90;;;;;;5057661;28;20708;-71
2022/05/04 03:15:08;;;;;;;10.05;8.38;;;11.10;99.90;;;;;;5055072;28;20191;-71
2022/05/04 03:17:35;;;;;;;8.90;8.20;;;11.00;99.90;;;;;;5055579;28;20283;-73
2022/05/04 03:20:01;;;;;;;9.80;8.82;;;11.00;99.90;;;;;;5051805;28;20643;-72
2022/05/04 03:22:26;;;;;;;9.38;8.48;;;11.00;99.90;;;;;;5055109;28;20245;-72
2022/05/04 03:24:53;;;;;;;10.93;9.82;;;11.00;99.90;;;;;;5054119;28;20184;-72
2022/05/04 03:27:19;;;;;;;9.02;8.13;;;10.90;99.90;;;;;;5057038;28;20212;-72
2022/05/04 03:29:44;;;;;;;10.20;9.00;;;11.00;99.90;;;;;;5054838;28;20211;-72
2022/05/04 03:32:10;;;;;;;11.02;8.93;;;11.00;99.90;;;;;;5053783;28;20180;-72
2022/05/04 03:34:36;;;;;;;10.15;9.10;;;11.10;99.90;;;;;;5055976;28;20175;-73
2022/05/04 03:37:02;;;;;;;9.23;8.30;;;11.10;99.90;;;;;;5054121;28;20227;-74
2022/05/04 03:39:29;;;;;;;9.45;8.65;;;11.10;99.90;;;;;;5054000;28;20908;-73
2022/05/04 03:41:55;;;;;;;8.52;7.82;;;11.10;99.90;;;;;;5052751;28;20710;-74
2022/05/04 03:44:21;;;;;;;9.88;9.07;;;11.20;99.90;;;;;;5055426;28;20270;-72
2022/05/04 03:46:49;;;;;;;9.27;8.55;;;11.10;99.90;;;;;;5054265;28;20203;-71
2022/05/04 03:49:17;;;;;;;9.30;8.38;;;11.10;99.90;;;;;;5053426;28;20230;-73
2022/05/04 03:51:43;;;;;;;9.52;8.57;;;11.10;99.90;;;;;;5053161;28;20597;-72
2022/05/04 03:54:10;;;;;;;9.27;8.48;;;11.10;99.90;;;;;;5054833;28;20188;-72
2022/05/04 03:56:37;;;;;;;9.57;8.77;;;11.10;99.90;;;;;;5053881;28;20206;-72
2022/05/04 03:59:04;;;;;;;8.93;8.23;;;11.10;99.90;;;;;;5048507;28;20188;-72
2022/05/04 04:01:30;;;;;;;9.90;8.88;;;11.10;99.90;;;;;;5053126;28;20187;-72
2022/05/04 04:03:55;;;;;;;9.30;8.48;;;11.10;99.90;;;;;;5060253;28;20712;-77
2022/05/04 04:06:21;;;;;;;9.30;8.50;;;11.00;99.90;;;;;;5055927;28;20228;-72
2022/05/04 04:08:49;;;;;;;9.40;8.52;;;11.10;99.90;;;;;;5053468;28;20251;-73
2022/05/04 04:11:15;;;;;;;9.80;8.98;;;11.10;99.90;;;;;;5052065;28;20290;-73
2022/05/04 04:13:40;;;;;;;10.98;9.07;;;11.10;99.90;;;;;;5058735;28;20266;-73
2022/05/04 04:16:06;;;;;;;9.60;8.80;;;11.10;99.90;;;;;;5058426;28;20206;-72
2022/05/04 04:18:32;;;;;;;8.95;8.25;;;11.10;99.90;;;;;;5057894;28;20230;-72
2022/05/04 04:23:42;;;;;;;9.90;8.98;;;11.20;99.90;;;;;;5050948;28;20260;-72
2022/05/04 04:26:09;;;;;;;10.18;9.15;;;11.20;99.90;;;;;;5054299;28;20698;-72
2022/05/04 04:28:38;;;;;;;10.18;9.27;;;11.30;99.90;;;;;;5050711;28;20191;-71
2022/05/04 04:31:04;;;;;;;10.10;9.20;;;11.30;99.90;;;;;;5047301;28;20316;-71
2022/05/04 04:33:30;;;;;;;9.93;9.00;;;11.30;99.90;;;;;;5051659;28;20184;-73
2022/05/04 04:35:56;;;;;;;9.65;8.95;;;11.40;99.90;;;;;;5043271;28;20211;-73
2022/05/04 04:38:22;;;;;;;10.40;9.40;;;11.60;99.90;;;;;;5047304;28;20302;-73
2022/05/04 04:40:48;;;;;;;9.55;8.77;;;11.70;99.90;;;;;;5041039;28;20262;-72
2022/05/04 04:43:15;;;;;;;9.65;8.93;;;11.70;99.90;;;;;;5059935;28;20251;-72
2022/05/04 04:45:45;;;;;;;10.07;9.18;;;11.70;99.90;;;;;;5046146;28;20205;-77
2022/05/04 04:48:11;;;;;;;10.75;9.88;;;11.80;99.90;;;;;;5047760;28;20177;-77
2022/05/04 04:50:37;;;;;;;10.18;9.27;;;11.90;99.90;;;;;;5049232;28;20624;-76
2022/05/04 04:53:03;;;;;;;10.95;9.98;;;11.90;99.90;;;;;;5048391;28;20182;-77
2022/05/04 04:55:28;;;;;;;10.95;9.15;;;12.10;99.90;;;;;;5048351;28;20180;-77
2022/05/04 04:57:54;;;;;;;10.23;9.20;;;12.20;99.90;;;;;;5048456;28;20275;-78
2022/05/04 05:00:20;;;;;;;9.82;8.82;;;12.20;99.90;;;;;;5047227;28;20237;-78
2022/05/04 05:02:47;;;;;;;10.65;9.75;;;12.30;99.90;;;;;;5056846;28;20180;-78
2022/05/04 05:05:12;;;;;;;11.48;10.27;;;12.40;99.90;;;;;;5027717;28;20250;-79
2022/05/04 05:07:38;;;;;;;10.60;9.63;;;12.50;99.90;;;;;;5054743;28;20666;-75
2022/05/04 05:10:05;;;;;;;9.88;8.98;;;12.60;99.90;;;;;;5052542;28;20686;-77
2022/05/04 05:12:32;;;;;;;9.93;9.05;;;12.70;99.90;;;;;;5055054;28;20652;-76
2022/05/04 05:17:42;;;;;;;10.55;9.68;;;12.80;99.90;;;;;;5050136;28;20203;-73
2022/05/04 05:20:09;;;;;;;10.63;9.63;;;13.10;99.90;;;;;;5059814;28;20643;-73
2022/05/04 05:22:35;;;;;;;10.20;9.30;;;13.20;99.90;;;;;;5067617;28;20191;-74
2022/05/04 05:25:01;;;;;;;9.45;8.60;;;13.40;99.90;;;;;;5056814;28;20785;-74
2022/05/04 05:27:29;;;;;;;10.23;9.23;;;13.50;99.90;;;;;;5053996;28;20208;-79
2022/05/04 05:29:56;;;;;;;10.13;9.23;;;13.50;99.90;;;;;;5040848;28;20200;-79
2022/05/04 05:32:21;;;;;;;11.70;9.38;;;13.50;99.90;;;;;;5059878;28;20549;-74
2022/05/04 05:34:47;;;;;;;9.50;8.68;;;13.40;99.90;;;;;;5054537;28;20266;-75
2022/05/04 05:37:13;;;;;;;10.45;8.77;;;13.50;99.90;;;;;;5048905;28;20740;-75
2022/05/04 05:39:39;;;;;;;10.18;9.23;;;13.70;99.90;;;;;;5050253;28;20203;-74
2022/05/04 05:42:06;;;;;;;8.80;7.93;;;13.70;99.90;;;;;;5052348;28;20215;-74
2022/05/04 05:44:31;;;;;;;9.20;8.30;;;13.90;99.90;;;;;;5048664;28;20192;-75
2022/05/04 05:46:57;;;;;;;12.10;9.02;;;14.00;99.90;;;;;;5047091;28;20195;-74
2022/05/04 05:49:23;;;;;;;9.23;8.43;;;14.10;99.90;;;;;;5049777;28;20210;-74
2022/05/04 05:51:48;;;;;;;8.95;8.15;;;14.20;99.90;;;;;;5046798;28;20172;-75
2022/05/04 05:54:14;;;;;;;8.70;7.80;;;14.40;99.90;;;;;;5047022;28;20563;-75
2022/05/04 05:56:40;;;;;;;8.57;7.85;;;14.60;99.90;;;;;;5055269;28;20196;-75
2022/05/04 05:59:06;;;;;;;8.23;7.63;;;14.90;99.90;;;;;;5023709;28;20716;-75
2022/05/04 06:01:32;;;;;;;8.27;7.55;;;15.10;99.90;;;;;;5027088;28;20335;-75
2022/05/04 06:03:57;;;;;;;8.05;7.45;;;15.30;99.90;;;;;;5020168;28;20185;-75
2022/05/04 06:06:23;;;;;;;8.02;7.43;;;15.30;99.90;;;;;;5015075;28;20201;-76
2022/05/04 06:08:48;;;;;;;7.68;7.07;;;15.50;99.90;;;;;;5011854;28;20605;-74
2022/05/04 06:11:14;;;;;;;8.90;8.02;;;15.70;99.90;;;;;;5017551;28;20216;-75
2022/05/04 06:13:40;;;;;;;8.23;7.55;;;15.70;99.90;;;;;;5020772;28;20264;-76
2022/05/04 06:16:05;;;;;;;9.10;8.40;;;15.60;99.90;;;;;;5016854;28;20205;-74
2022/05/04 06:18:31;;;;;;;8.40;7.63;;;15.50;99.90;;;;;;5023133;28;20179;-78
2022/05/04 06:20:59;;;;;;;8.27;7.53;;;15.60;99.90;;;;;;5015475;28;20204;-74
2022/05/04 06:23:25;;;;;;;8.13;7.45;;;15.60;99.90;;;;;;5021805;28;20188;-74
2022/05/04 06:25:51;;;;;;;7.93;7.22;;;15.80;99.90;;;;;;5037199;28;20709;-73
2022/05/04 06:28:16;;;;;;;8.50;7.68;;;15.90;99.90;;;;;;5031211;28;20185;-74
2022/05/04 06:36:10;;;;;;;7.65;7.00;;;16.50;99.90;;;;;;5022150;28;20259;-74
2022/05/04 06:38:36;;;;;;;7.80;7.20;;;16.50;99.90;;;;;;5029779;28;20212;-74
2022/05/04 06:41:03;;;;;;;8.20;7.53;;;16.70;99.90;;;;;;5027485;28;20666;-78
2022/05/04 06:43:29;;;;;;;7.85;7.13;;;16.90;99.90;;;;;;5004274;28;20187;-75
2022/05/04 06:45:55;;;;;;;8.60;7.88;;;17.10;99.90;;;;;;5029625;28;20271;-80
2022/05/04 06:48:20;;;;;;;8.32;7.60;;;17.00;99.90;;;;;;5034168;28;20204;-79
2022/05/04 06:50:46;;;;;;;8.00;7.20;;;17.20;99.90;;;;;;5012628;28;21161;-82
2022/05/04 06:53:11;;;;;;;7.45;6.90;;;17.30;99.90;;;;;;5022673;28;20212;-82
2022/05/04 06:55:38;;;;;;;7.43;6.82;;;17.30;99.90;;;;;;5018919;28;20197;-74
2022/05/04 06:58:04;;;;;;;8.45;6.70;;;17.30;99.90;;;;;;5031103;28;20677;-76
2022/05/04 07:00:30;;;;;;;7.30;6.78;;;17.20;99.90;;;;;;5051143;28;20180;-75
2022/05/04 07:02:55;;;;;;;8.23;7.63;;;17.00;99.90;;;;;;5050339;28;20338;-75
2022/05/04 07:05:21;;;;;;;8.63;7.88;;;16.70;99.90;;;;;;5035510;28;20179;-75
2022/05/04 07:07:48;;;;;;;7.70;6.90;;;16.60;99.90;;;;;;5033211;28;20192;-74
2022/05/04 07:10:14;;;;;;;8.10;7.32;;;16.50;99.90;;;;;;5046271;28;20737;-75
2022/05/04 07:12:39;;;;;;;8.43;7.50;;;16.60;99.90;;;;;;5029364;28;20183;-75
2022/05/04 07:15:05;;;;;;;8.20;7.55;;;16.60;99.90;;;;;;5043975;28;20187;-74
2022/05/04 07:17:31;;;;;;;8.80;7.95;;;16.50;99.90;;;;;;5038284;28;20262;-75
2022/05/04 07:19:57;;;;;;;8.32;7.55;;;16.30;99.90;;;;;;5055993;28;20271;-76
2022/05/04 07:22:23;;;;;;;9.05;8.27;;;16.00;99.90;;;;;;5046649;28;20208;-73
2022/05/04 07:24:49;;;;;;;8.70;7.90;;;15.80;99.90;;;;;;5055596;28;20524;-75
2022/05/04 07:27:24;;;;;;;9.60;8.80;;;15.60;99.90;;;;;;5052226;28;20222;-80
2022/05/04 07:29:50;;;;;;;10.05;9.02;;;15.30;99.90;;;;;;5045667;28;20203;-74
2022/05/04 07:32:16;;;;;;;10.85;9.85;;;15.10;99.90;;;;;;5053291;28;20725;-75
2022/05/04 07:34:44;;;;;;;9.30;8.40;;;15.10;99.90;;;;;;5054515;28;20172;-79
2022/05/04 07:37:10;;;;;;;8.07;7.45;;;15.00;99.90;;;;;;5059368;28;20713;-78
2022/05/04 07:42:24;;;;;;;9.60;8.70;;;14.50;99.90;;;;;;5053986;28;20239;-79
2022/05/04 07:45:00;;;;;;;10.27;9.38;;;14.40;99.90;;;;;;5053099;28;20237;-74
2022/05/04 07:47:31;;;;;;;11.27;10.30;;;14.30;99.90;;;;;;5049973;28;20290;-74
2022/05/04 07:49:57;;;;;;;11.18;10.27;;;14.30;99.90;;;;;;5043482;28;20242;-73
2022/05/04 07:52:23;;;;;;;10.52;9.63;;;14.30;99.90;;;;;;5051515;28;20716;-73
2022/05/04 07:54:49;;;;;;;11.27;10.38;;;14.30;99.90;;;;;;5050999;28;20175;-73
2022/05/04 07:57:15;;;;;;;11.02;10.13;;;14.30;99.90;;;;;;5007944;28;1110945;-73
2022/05/04 08:05:21;;;;;;;11.75;10.75;;;14.20;99.90;;;;;;5045496;28;20219;-73
2022/05/04 08:07:47;;;;;;;12.90;11.80;;;14.10;99.90;;;;;;5051393;28;20204;-77
2022/05/04 08:10:13;;;;;;;11.93;10.82;;;14.10;99.90;;;;;;5026412;28;20720;-73
2022/05/04 08:12:39;;;;;;;9.45;8.75;;;14.10;99.90;;;;;;5054055;28;20650;-75
2022/05/04 08:15:05;;;;;;;10.15;9.25;;;14.00;99.90;;;;;;5048813;28;20191;-75
2022/05/04 08:17:31;;;;;;;10.00;9.18;;;14.10;99.90;;;;;;5046460;28;20200;-74
2022/05/04 08:19:56;;;;;;;9.77;8.95;;;14.10;99.90;;;;;;5062383;28;20214;-75
2022/05/04 08:22:22;;;;;;;9.93;9.13;;;14.20;99.90;;;;;;5052859;28;20242;-74
2022/05/04 08:24:48;;;;;;;8.20;7.35;;;14.40;99.90;;;;;;5048584;28;20195;-74
2022/05/04 08:27:13;;;;;;;7.53;6.70;;;14.60;99.90;;;;;;5046421;28;20257;-73
2022/05/04 08:29:39;;;;;;;7.18;6.65;;;14.80;99.90;;;;;;5051476;28;20261;-72
2022/05/04 08:32:05;;;;;;;7.20;6.60;;;15.20;99.90;;;;;;5049551;28;20184;-73
2022/05/04 08:34:31;;;;;;;6.88;6.10;;;15.50;99.90;;;;;;5047238;28;20178;-73
2022/05/04 08:36:57;;;;;;;6.53;6.03;;;15.90;99.90;;;;;;5044873;28;20307;-74
2022/05/04 08:39:23;;;;;;;7.28;6.68;;;16.30;99.90;;;;;;5052435;28;20184;-73
2022/05/04 08:41:50;;;;;;;5.93;5.32;;;16.80;99.90;;;;;;5050375;28;20640;-73
2022/05/04 08:44:16;;;;;;;5.95;5.45;;;17.20;99.90;;;;;;5050045;28;20226;-73
2022/05/04 08:46:43;;;;;;;5.75;5.32;;;17.80;99.90;;;;;;5052689;28;20235;-74
2022/05/04 08:49:13;;;;;;;6.50;5.95;;;18.40;99.90;;;;;;5052194;28;20279;-78
2022/05/04 08:51:40;;;;;;;5.65;5.15;;;19.10;99.90;;;;;;5051629;28;20666;-72
2022/05/04 08:54:07;;;;;;;5.82;5.43;;;19.50;99.90;;;;;;5047063;28;20185;-74
2022/05/04 08:56:34;;;;;;;6.03;5.45;;;19.70;99.90;;;;;;5046718;28;20213;-72
2022/05/04 08:59:07;;;;;;;5.50;5.10;;;20.20;99.90;;;;;;5053564;28;20188;-74
2022/05/04 09:01:41;;;;;;;7.20;6.50;;;20.30;99.90;;;;;;5046885;28;20183;-72
2022/05/04 09:04:08;;;;;;;7.60;6.43;;;20.50;99.90;;;;;;5046255;28;20266;-72
2022/05/04 09:06:41;;;;;;;6.97;6.00;;;20.70;99.90;;;;;;5030255;28;20206;-72
2022/05/04 09:09:13;;;;;;;6.90;6.35;;;21.10;99.90;;;;;;5051867;28;20180;-72
2022/05/04 09:11:46;;;;;;;7.30;6.68;;;21.40;99.90;;;;;;5054609;28;20199;-72
2022/05/04 09:14:20;;;;;;;15.95;12.48;;;22.00;99.90;;;;;;5054522;28;20175;-72
2022/05/04 09:16:50;;;;;;;11.30;7.68;;;22.60;99.90;;;;;;5052549;28;20203;-72
2022/05/04 09:19:18;;;;;;;8.38;7.05;;;23.30;99.90;;;;;;5051659;28;20619;-72
2022/05/04 09:21:47;;;;;;;57.05;19.45;;;24.30;99.90;;;;;;5052977;28;20218;-73
2022/05/04 09:24:34;;;;;;;24.73;12.95;;;25.10;99.90;;;;;;5057840;28;20711;-75
2022/05/04 09:27:00;;;;;;;6.60;6.10;;;26.00;99.90;;;;;;5051652;28;20492;-72
2022/05/04 09:29:37;;;;;;;13.93;6.47;;;27.40;99.90;;;;;;5051863;28;20666;-71
2022/05/04 09:32:21;;;;;;;5.45;5.05;;;29.60;96.50;;;;;;5052297;28;20255;-72
2022/05/04 09:34:46;;;;;;;5.15;4.75;;;31.40;76.90;;;;;;5051849;28;20539;-71
2022/05/04 09:45:36;;;;;;;5.47;5.03;;;33.80;58.60;;;;;;5036894;28;20238;-75
2022/05/04 09:48:03;;;;;;;5.82;4.97;;;33.80;58.90;;;;;;5041770;28;20642;-76
2022/05/04 09:50:29;;;;;;;4.97;4.65;;;33.60;57.60;;;;;;5047146;28;20294;-73
2022/05/04 09:52:57;;;;;;;5.88;5.40;;;34.40;55.80;;;;;;5049934;28;20271;-73
2022/05/04 09:55:25;;;;;;;5.45;5.15;;;34.90;53.20;;;;;;5052244;28;20254;-73
2022/05/04 09:57:52;;;;;;;7.38;4.88;;;34.80;54.90;;;;;;5050277;28;20191;-73
2022/05/04 10:00:21;;;;;;;5.57;5.10;;;34.80;56.30;;;;;;5052239;28;20191;-73
2022/05/04 10:02:48;;;;;;;4.90;4.60;;;35.70;53.60;;;;;;5050923;28;20175;-73
2022/05/04 10:05:15;;;;;;;5.85;3.85;;;36.00;52.00;;;;;;5052082;28;20179;-74
2022/05/04 10:07:44;;;;;;;4.75;4.45;;;36.90;50.60;;;;;;5047875;28;20610;-73
2022/05/04 10:10:15;;;;;;;4.97;4.68;;;37.40;47.70;;;;;;5044693;28;20209;-73
2022/05/04 10:12:42;;;;;;;4.45;4.25;;;37.30;48.20;;;;;;5051205;28;20243;-73
2022/05/04 10:15:10;;;;;;;4.45;4.05;;;37.60;48.80;;;;;;5046762;28;20668;-75
2022/05/04 10:17:42;;;;;;;5.00;4.70;;;37.20;46.50;;;;;;5049149;28;20551;-75
2022/05/04 10:20:12;;;;;;;4.40;4.00;;;35.30;49.50;;;;;;5052602;28;20207;-73
2022/05/04 10:22:47;;;;;;;4.40;4.10;;;35.00;49.10;;;;;;5057879;28;20247;-71
2022/05/04 10:25:14;;;;;;;4.55;4.15;;;35.20;49.40;;;;;;5052935;28;20278;-71
2022/05/04 10:27:41;;;;;;;3.38;3.17;;;36.30;47.90;;;;;;5052944;28;20688;-73
2022/05/04 10:32:57;;;;;;;3.80;3.60;;;37.70;44.90;;;;;;5057103;28;20225;-71
2022/05/04 10:35:38;;;;;;;3.60;3.30;;;37.40;44.60;;;;;;5052228;28;20184;-71
2022/05/04 10:38:13;;;;;;;3.97;3.70;;;35.30;45.50;;;;;;5032105;28;20593;-70
2022/05/04 10:40:40;;;;;;;3.15;3.03;;;32.60;49.10;;;;;;5057135;28;20189;-70
2022/05/04 10:43:09;;;;;;;3.10;2.90;;;30.90;53.10;;;;;;5054164;28;20183;-74
2022/05/04 10:45:43;;;;;;;3.80;3.40;;;29.70;55.50;;;;;;5037584;28;20357;-74
2022/05/04 10:48:20;;;;;;;3.28;3.17;;;28.50;56.70;;;;;;5055211;28;20230;-73
2022/05/04 10:50:46;;;;;;;3.47;3.25;;;28.30;57.00;;;;;;5058382;28;20211;-74
2022/05/04 10:53:24;;;;;;;3.25;3.13;;;28.60;56.50;;;;;;5055738;28;20189;-74
2022/05/04 10:56:01;;;;;;;3.35;3.15;;;29.70;57.60;;;;;;5050639;28;20199;-74
2022/05/04 10:58:49;;;;;;;3.15;2.95;;;29.70;55.80;;;;;;5042265;28;20232;-74
2022/05/04 11:01:30;;;;;;;2.90;2.80;;;28.40;57.60;;;;;;5056602;28;20222;-74
2022/05/04 11:04:11;;;;;;;3.65;3.28;;;27.20;60.80;;;;;;5049771;28;20233;-74
2022/05/04 11:06:53;;;;;;;3.55;3.28;;;26.20;61.40;;;;;;5047865;28;20199;-74
2022/05/04 11:09:21;;;;;;;2.95;2.78;;;25.90;64.40;;;;;;5043658;28;20191;-74
2022/05/04 11:11:49;;;;;;;2.67;2.58;;;26.50;63.00;;;;;;5049105;28;20306;-73
2022/05/04 11:14:17;;;;;;;2.60;2.50;;;28.10;59.40;;;;;;5049347;28;20181;-73
2022/05/04 11:16:44;;;;;;;2.70;2.60;;;29.60;59.00;;;;;;5049458;28;20214;-74
2022/05/04 11:19:12;;;;;;;3.20;2.97;;;32.10;56.60;;;;;;5048368;28;20312;-72
2022/05/04 11:21:38;;;;;;;2.92;2.67;;;34.30;51.90;;;;;;5040395;28;20267;-72
2022/05/04 11:24:09;;;;;;;2.38;2.22;;;35.30;48.70;;;;;;5045649;28;20176;-71
2022/05/04 11:26:41;;;;;;;3.10;2.80;;;36.30;47.60;;;;;;5047905;28;20199;-71
2022/05/04 11:29:10;;;;;;;2.70;2.60;;;37.60;44.30;;;;;;5045092;28;20202;-72
2022/05/04 11:31:37;;;;;;;2.97;2.50;;;38.30;44.60;;;;;;5048832;28;20275;-72
2022/05/04 11:34:03;;;;;;;2.83;2.70;;;38.10;43.40;;;;;;5046427;28;20183;-72
2022/05/04 11:36:28;;;;;;;3.13;2.92;;;37.90;42.70;;;;;;5044415;28;20714;-72
2022/05/04 11:38:54;;;;;;;3.08;2.80;;;36.90;43.70;;;;;;5047755;28;20178;-72
2022/05/04 11:41:20;;;;;;;3.20;2.90;;;36.60;44.50;;;;;;5049473;28;20183;-71
2022/05/04 11:43:49;;;;;;;3.15;2.88;;;36.50;45.10;;;;;;5051588;28;20175;-72
2022/05/04 11:46:16;;;;;;;4.65;2.83;;;36.60;45.50;;;;;;5046444;28;20227;-74
2022/05/04 11:48:44;;;;;;;3.00;2.80;;;37.70;44.70;;;;;;5049828;28;20182;-73
2022/05/04 11:51:11;;;;;;;3.10;2.83;;;37.90;43.10;;;;;;5050193;28;20199;-72
2022/05/04 11:53:38;;;;;;;2.47;2.33;;;37.50;43.10;;;;;;5049706;28;20186;-72
2022/05/04 11:56:05;;;;;;;2.97;2.25;;;38.60;41.20;;;;;;5041332;28;20214;-72
2022/05/04 11:58:33;;;;;;;2.58;2.20;;;38.80;40.20;;;;;;5048652;28;20187;-72
2022/05/04 12:00:59;;;;;;;2.00;1.90;;;38.50;40.70;;;;;;5048132;28;20171;-71
2022/05/04 12:03:25;;;;;;;2.30;2.20;;;38.10;41.70;;;;;;5054509;28;20209;-72
2022/05/04 12:05:53;;;;;;;2.15;1.95;;;37.20;41.30;;;;;;5042146;28;20281;-74
2022/05/04 12:08:19;;;;;;;2.28;2.17;;;37.10;41.50;;;;;;5043878;28;20654;-72
2022/05/04 12:10:49;;;;;;;2.22;1.80;;;37.20;40.80;;;;;;5052103;28;20238;-72
2022/05/04 12:13:19;;;;;;;2.15;2.00;;;37.50;41.20;;;;;;5050190;28;20179;-72
2022/05/04 12:15:45;;;;;;;1.88;1.77;;;37.40;41.70;;;;;;5052389;28;20663;-72
2022/05/04 12:18:12;;;;;;;3.05;2.00;;;36.90;40.00;;;;;;5054321;28;20290;-71
2022/05/04 12:20:38;;;;;;;2.50;2.30;;;36.00;41.60;;;;;;5053408;28;20179;-69
2022/05/04 12:23:04;;;;;;;2.08;1.98;;;35.60;42.00;;;;;;5047451;28;20489;-69
2022/05/04 12:25:31;;;;;;;5.30;2.22;;;35.20;42.40;;;;;;5046942;28;20194;-69
2022/05/04 12:27:57;;;;;;;2.35;2.17;;;34.80;42.00;;;;;;5051189;28;20265;-69
2022/05/04 12:33:13;;;;;;;2.22;2.13;;;32.70;45.40;;;;;;5047262;28;20559;-69
2022/05/04 12:35:42;;;;;;;2.25;2.05;;;31.40;47.50;;;;;;5050623;28;20213;-69
2022/05/04 12:38:09;;;;;;;2.38;2.28;;;30.40;49.20;;;;;;5051602;28;20183;-73
2022/05/04 12:40:36;;;;;;;2.45;2.35;;;29.40;50.60;;;;;;5043386;28;20176;-75
2022/05/04 12:43:03;;;;;;;4.25;2.70;;;28.40;52.30;;;;;;5041776;28;20184;-75
2022/05/04 12:45:29;;;;;;;3.58;2.17;;;27.10;53.50;;;;;;5039134;28;20247;-78
2022/05/04 12:47:56;;;;;;;3.47;3.15;;;26.60;55.60;;;;;;5043521;28;20180;-78
2022/05/04 12:50:24;;;;;;;3.00;2.85;;;26.30;57.10;;;;;;5044424;28;20204;-78
2022/05/04 12:52:50;;;;;;;4.15;3.08;;;25.70;59.50;;;;;;5041869;28;20263;-72
2022/05/04 12:55:16;;;;;;;4.10;3.30;;;25.20;61.50;;;;;;5041702;28;20203;-72
2022/05/04 12:57:42;;;;;;;3.03;2.83;;;24.50;64.40;;;;;;5041935;28;20191;-73
2022/05/04 13:00:12;;;;;;;3.67;3.38;;;24.00;66.50;;;;;;5043683;28;20535;-73
2022/05/04 13:02:42;;;;;;;3.10;2.83;;;23.70;67.00;;;;;;5042802;28;20171;-74
2022/05/04 13:05:08;;;;;;;3.10;2.90;;;23.40;69.00;;;;;;5045520;28;20219;-76
2022/05/04 13:07:35;;;;;;;3.00;2.80;;;23.10;71.10;;;;;;5048718;28;20198;-73
2022/05/04 13:10:01;;;;;;;2.70;2.50;;;22.70;72.60;;;;;;5046326;28;20286;-72
2022/05/04 13:12:27;;;;;;;2.60;2.30;;;22.50;73.10;;;;;;5046272;28;20208;-73
2022/05/04 13:14:53;;;;;;;2.33;2.22;;;22.30;74.20;;;;;;5041874;28;20512;-78
2022/05/04 13:17:18;;;;;;;2.58;2.38;;;22.30;74.40;;;;;;5042306;28;20204;-77
2022/05/04 13:19:44;;;;;;;2.45;2.35;;;22.30;75.10;;;;;;5047640;28;20924;-76
2022/05/04 13:22:09;;;;;;;2.30;2.20;;;22.20;77.20;;;;;;5049119;28;20700;-76
2022/05/04 13:24:35;;;;;;;2.30;2.20;;;22.10;81.40;;;;;;5043435;28;20179;-76